Surface Data

84.0 °F / 28.9 °C
ENE at 18 MPH
75%
75.4°F / 24.1 °C
29.68" (1005 mb)
10 mile(s)
clear
2021.12.05 0500 UTC

Surface Data

Raw METARs

2021/12/05 05:00
PKWA 050500Z AUTO 06016KT 10SM CLR 29/24 A2968 RMK AO2 T02890241

Translated METAR

Kwajalein, Bucholz AAF, Kwajalein KMR ATOL Airport, Marshall Islands (PKWA) 08-43N 167-44E 2M
Dec 05, 2021 - 12:00 AM EST / 2021.12.05 0500 UTC
Wind: from the ENE (060 degrees) at 18 MPH (16 KT):0
Visibility: 10 mile(s):0
Sky conditions: clear
Temperature: 84.0 F (28.9 C)
Dew Point: 75.4 F (24.1 C)
Relative Humidity: 75%
Pressure (altimeter): 29.68 in. Hg (1005 hPa)
ob: PKWA 050500Z AUTO 06016KT 10SM CLR 29/24 A2968 RMK AO2 T02890241
cycle: 5